createdAt,value
2017-10-24T00:00:28.444Z,13.37
2017-10-24T00:02:59.772Z,13.36
2017-10-24T00:05:33.908Z,13.35
2017-10-24T00:08:09.099Z,13.36
2017-10-24T00:10:42.204Z,13.40
2017-10-24T00:13:14.983Z,13.43
2017-10-24T00:15:46.369Z,13.47
2017-10-24T00:18:18.337Z,13.47
2017-10-24T00:23:11.827Z,13.42
2017-10-24T00:25:45.426Z,13.42
2017-10-24T00:28:17.250Z,13.41
2017-10-24T00:30:49.946Z,13.41
2017-10-24T00:33:21.847Z,13.41
2017-10-24T00:35:53.618Z,13.43
2017-10-24T00:38:27.712Z,13.41
2017-10-24T00:40:59.194Z,13.42
2017-10-24T00:43:31.312Z,13.43
2017-10-24T00:46:10.735Z,13.42
2017-10-24T00:48:43.233Z,13.41
2017-10-24T00:51:15.271Z,13.43
2017-10-24T00:53:46.693Z,13.40
2017-10-24T00:56:18.576Z,13.39
2017-10-24T00:58:50.496Z,13.40
2017-10-24T01:01:24.159Z,13.40
2017-10-24T01:03:55.475Z,13.40
2017-10-24T01:06:29.784Z,13.36
2017-10-24T01:09:01.189Z,13.38
2017-10-24T01:11:36.866Z,13.38
2017-10-24T01:14:10.584Z,13.37
2017-10-24T01:16:42.316Z,13.38
2017-10-24T01:19:14.131Z,13.35
2017-10-24T01:21:46.538Z,13.33
2017-10-24T01:24:19.764Z,13.31
2017-10-24T01:26:52.242Z,13.27
2017-10-24T01:29:24.606Z,13.23
2017-10-24T01:31:57.863Z,13.23
2017-10-24T01:34:39.390Z,13.25
2017-10-24T01:37:15.609Z,13.25
2017-10-24T01:39:47.487Z,13.29
2017-10-24T01:42:20.613Z,13.30
2017-10-24T01:44:52.514Z,13.29
2017-10-24T01:47:27.073Z,13.26
2017-10-24T01:49:58.781Z,13.30
2017-10-24T01:52:33.911Z,13.28
2017-10-24T01:55:09.358Z,13.30
2017-10-24T01:57:42.945Z,13.31
2017-10-24T02:00:15.973Z,13.31
2017-10-24T02:02:47.790Z,13.29
2017-10-24T02:05:20.661Z,13.30
2017-10-24T02:07:54.771Z,13.27
2017-10-24T02:10:26.300Z,13.25
2017-10-24T02:12:58.361Z,13.23
2017-10-24T02:15:29.762Z,13.22
2017-10-24T02:18:03.371Z,13.19
2017-10-24T02:20:35.473Z,13.17
2017-10-24T02:23:07.354Z,13.18
2017-10-24T02:25:40.280Z,13.13
2017-10-24T02:28:12.722Z,13.09
2017-10-24T02:30:47.126Z,13.09
2017-10-24T02:33:22.299Z,13.08
2017-10-24T02:35:55.689Z,13.08
2017-10-24T02:38:30.973Z,13.11
2017-10-24T02:41:07.448Z,13.10
2017-10-24T02:43:40.738Z,13.10
2017-10-24T02:46:17.335Z,13.09
2017-10-24T02:48:50.177Z,13.09
2017-10-24T02:51:23.035Z,13.11
2017-10-24T02:53:55.236Z,13.12
2017-10-24T02:56:26.913Z,13.09
2017-10-24T02:59:00.415Z,13.07
2017-10-24T03:01:33.790Z,13.05
2017-10-24T03:04:10.165Z,13.06
2017-10-24T03:06:42.990Z,13.07
2017-10-24T03:09:15.948Z,13.05
2017-10-24T03:11:49.517Z,13.07
2017-10-24T03:14:23.297Z,13.04
2017-10-24T03:16:55.221Z,13.01
2017-10-24T03:19:26.862Z,12.98
2017-10-24T03:21:58.623Z,12.97
2017-10-24T03:24:34.821Z,13.00
2017-10-24T03:27:07.147Z,12.99
2017-10-24T03:29:40.211Z,13.01
2017-10-24T03:32:11.847Z,12.99
2017-10-24T03:34:43.784Z,13.01
2017-10-24T03:37:15.254Z,13.00
2017-10-24T03:39:49.026Z,13.03
2017-10-24T03:42:20.638Z,12.99
2017-10-24T03:44:52.511Z,12.97
2017-10-24T03:47:27.874Z,12.94
2017-10-24T03:49:59.523Z,12.96
2017-10-24T03:52:32.700Z,12.93
2017-10-24T03:55:12.377Z,12.84
2017-10-24T03:57:44.305Z,12.79
2017-10-24T04:00:16.837Z,12.81
2017-10-24T04:02:52.264Z,12.83
2017-10-24T04:05:23.621Z,12.85
2017-10-24T04:07:58.653Z,12.89
2017-10-24T04:10:31.599Z,12.88
2017-10-24T04:13:04.372Z,12.90
2017-10-24T04:15:36.830Z,12.88
2017-10-24T04:18:08.589Z,12.90
2017-10-24T04:20:41.398Z,12.88
2017-10-24T04:23:16.210Z,12.85
2017-10-24T04:25:52.537Z,12.87
2017-10-24T04:28:25.648Z,12.86
2017-10-24T04:30:57.858Z,12.90
2017-10-24T04:33:31.619Z,12.93
2017-10-24T04:36:07.075Z,12.94
2017-10-24T04:38:40.810Z,12.96
2017-10-24T04:41:12.771Z,12.93
2017-10-24T04:43:48.109Z,12.96
2017-10-24T04:46:22.536Z,12.96
2017-10-24T04:48:56.690Z,12.97
2017-10-24T04:51:30.563Z,12.93
2017-10-24T04:54:06.257Z,12.92
2017-10-24T04:56:37.869Z,12.94
2017-10-24T04:59:10.910Z,12.91
2017-10-24T05:01:43.290Z,12.89
2017-10-24T05:04:15.062Z,12.89
2017-10-24T05:06:47.460Z,12.89
2017-10-24T05:09:20.011Z,12.90
2017-10-24T05:11:53.206Z,12.91
2017-10-24T05:14:26.084Z,12.93
2017-10-24T05:16:59.473Z,12.96
2017-10-24T05:19:31.245Z,12.97
2017-10-24T05:22:06.373Z,12.95
2017-10-24T05:24:37.772Z,12.95
2017-10-24T05:27:10.885Z,12.95
2017-10-24T05:29:43.639Z,12.91
2017-10-24T05:32:18.724Z,12.92
2017-10-24T05:34:50.144Z,12.93
2017-10-24T05:37:24.630Z,12.95
2017-10-24T05:39:59.672Z,12.95
2017-10-24T05:42:33.649Z,12.93
2017-10-24T05:45:08.223Z,12.96
2017-10-24T05:47:42.192Z,12.97
2017-10-24T05:50:20.994Z,12.99
2017-10-24T05:52:59.038Z,13.02
2017-10-24T05:55:33.053Z,13.03
2017-10-24T05:58:10.011Z,13.00
2017-10-24T06:00:42.089Z,12.97
2017-10-24T06:03:18.888Z,13.00
2017-10-24T06:05:55.078Z,13.02
2017-10-24T06:08:29.277Z,12.99
2017-10-24T06:11:03.396Z,13.02
2017-10-24T06:13:38.493Z,13.03
2017-10-24T06:16:11.275Z,13.02
2017-10-24T06:18:44.225Z,13.01
2017-10-24T06:21:18.160Z,13.02
2017-10-24T06:23:50.155Z,13.04
2017-10-24T06:26:21.820Z,13.05
2017-10-24T06:28:55.851Z,13.03
2017-10-24T06:31:52.077Z,13.04
2017-10-24T06:34:49.316Z,13.08
2017-10-24T06:38:28.604Z,13.11
2017-10-24T06:44:39.802Z,13.21
2017-10-24T06:59:28.101Z,13.29
2017-10-24T07:01:59.438Z,13.28
2017-10-24T07:04:30.876Z,13.32
2017-10-24T07:07:02.832Z,13.33
2017-10-24T07:09:34.226Z,13.33
2017-10-24T07:12:07.087Z,13.39
2017-10-24T07:14:38.557Z,13.42
2017-10-24T07:17:09.952Z,13.43
2017-10-24T07:19:41.350Z,13.42
2017-10-24T07:22:13.513Z,13.48
2017-10-24T07:24:44.965Z,13.51
2017-10-24T07:27:17.405Z,13.54
2017-10-24T07:29:49.072Z,13.58
2017-10-24T07:32:21.456Z,13.64
2017-10-24T07:34:53.762Z,13.67
2017-10-24T07:37:25.456Z,13.71
2017-10-24T07:39:56.835Z,13.78
2017-10-24T07:42:28.232Z,13.78
2017-10-24T07:44:59.963Z,13.80
2017-10-24T07:47:31.333Z,13.81
2017-10-24T07:50:04.255Z,13.85
2017-10-24T07:52:36.132Z,13.97
2017-10-24T07:55:07.461Z,13.94
2017-10-24T07:57:38.786Z,14.00
2017-10-24T08:00:11.263Z,13.95
2017-10-24T08:02:43.045Z,13.98
2017-10-24T08:05:14.700Z,14.07
2017-10-24T08:07:46.055Z,14.14
2017-10-24T08:10:19.252Z,14.15
2017-10-24T08:12:50.683Z,14.19
2017-10-24T08:15:22.127Z,14.24
2017-10-24T08:17:53.823Z,14.27
2017-10-24T08:20:25.233Z,14.32
2017-10-24T08:22:56.684Z,14.31
2017-10-24T08:25:28.328Z,14.31
2017-10-24T08:27:59.657Z,14.38
2017-10-24T08:30:31.007Z,14.37
2017-10-24T08:33:04.442Z,14.35
2017-10-24T08:35:35.876Z,14.44
2017-10-24T08:38:08.357Z,14.48
2017-10-24T08:40:39.969Z,14.48
2017-10-24T08:43:11.455Z,14.46
2017-10-24T09:08:21.096Z,15.04
2017-10-24T09:11:01.655Z,15.18
2017-10-24T09:13:38.576Z,15.30
2017-10-24T09:29:04.057Z,15.38
2017-10-24T09:31:36.744Z,16.49
2017-10-24T09:34:08.638Z,16.68
2017-10-24T09:36:45.240Z,16.85
2017-10-24T09:39:16.576Z,17.01
2017-10-24T09:41:48.221Z,17.07
2017-10-24T09:44:19.667Z,16.98
2017-10-24T09:46:51.035Z,17.00
2017-10-24T09:49:22.764Z,16.99
2017-10-24T09:51:54.114Z,16.85
2017-10-24T09:54:25.549Z,16.67
2017-10-24T09:56:57.362Z,16.47
2017-10-24T09:59:36.827Z,16.49
2017-10-24T10:02:09.186Z,16.55
2017-10-24T10:04:40.542Z,16.44
2017-10-24T10:07:12.071Z,16.39
2017-10-24T10:09:43.749Z,16.55
2017-10-24T10:12:16.938Z,16.60
2017-10-24T10:14:48.544Z,16.67
2017-10-24T10:17:19.888Z,16.86
2017-10-24T10:19:51.240Z,16.99
2017-10-24T10:22:23.192Z,17.27
2017-10-24T10:24:54.585Z,17.51
2017-10-24T10:27:26.026Z,17.92
2017-10-24T10:29:57.757Z,18.14
2017-10-24T10:32:29.112Z,18.11
2017-10-24T10:35:01.064Z,17.93
2017-10-24T10:37:32.431Z,17.94
2017-10-24T10:40:05.683Z,17.93
2017-10-24T10:42:37.365Z,17.80
2017-10-24T10:45:08.692Z,17.82
2017-10-24T10:47:40.186Z,17.90
2017-10-24T10:50:12.350Z,17.91
2017-10-24T10:52:43.708Z,18.07
2017-10-24T10:55:16.157Z,18.10
2017-10-24T10:57:47.543Z,17.86
2017-10-24T11:00:21.066Z,17.99
2017-10-24T11:02:52.781Z,17.94
2017-10-24T11:05:24.595Z,17.98
2017-10-24T11:07:56.291Z,17.89
2017-10-24T11:10:32.104Z,17.82
2017-10-24T11:13:03.732Z,17.77
2017-10-24T11:15:35.167Z,17.72
2017-10-24T11:18:07.424Z,17.72
2017-10-24T11:20:39.125Z,17.65
2017-10-24T11:23:10.494Z,17.56
2017-10-24T11:25:41.825Z,17.37
2017-10-24T11:28:13.558Z,17.22
2017-10-24T11:30:45.936Z,17.35
2017-10-24T11:33:18.937Z,17.50
2017-10-24T11:35:51.091Z,17.61
2017-10-24T11:38:23.778Z,17.53
2017-10-24T11:40:55.145Z,17.55
2017-10-24T11:43:26.860Z,17.45
2017-10-24T11:45:58.219Z,17.49
2017-10-24T11:48:29.902Z,17.63
2017-10-24T11:51:01.463Z,17.58
2017-10-24T11:53:32.987Z,17.55
2017-10-24T11:56:05.517Z,17.56
2017-10-24T11:58:36.929Z,17.50
2017-10-24T12:01:09.373Z,17.51
2017-10-24T12:03:40.714Z,17.58
2017-10-24T12:06:15.467Z,17.68
2017-10-24T12:08:46.828Z,17.62
2017-10-24T12:11:19.371Z,17.74
2017-10-24T12:13:51.280Z,17.89
2017-10-24T12:16:22.783Z,17.94
2017-10-24T12:18:54.278Z,18.03
2017-10-24T12:21:25.728Z,18.06
2017-10-24T12:23:58.379Z,18.17
2017-10-24T12:26:29.755Z,18.34
2017-10-24T12:29:01.205Z,18.41
2017-10-24T12:31:33.412Z,18.47
2017-10-24T12:34:06.938Z,18.56
2017-10-24T12:36:38.477Z,18.52
2017-10-24T12:39:10.358Z,18.35
2017-10-24T12:41:41.878Z,18.33
2017-10-24T12:44:16.754Z,18.32
2017-10-24T12:46:48.220Z,18.29
2017-10-24T12:49:21.054Z,18.43
2017-10-24T12:51:53.007Z,18.35
2017-10-24T12:54:27.539Z,18.45
2017-10-24T12:56:59.062Z,18.34
2017-10-24T12:59:31.351Z,18.29
2017-10-24T13:02:04.655Z,18.28
2017-10-24T13:04:37.176Z,18.32
2017-10-24T13:07:08.590Z,18.29
2017-10-24T13:09:42.089Z,18.31
2017-10-24T13:14:51.979Z,18.37
2017-10-24T13:17:23.364Z,18.23
2017-10-24T13:19:54.743Z,18.15
2017-10-24T13:22:26.325Z,18.06
2017-10-24T13:24:57.714Z,17.97
2017-10-24T13:27:29.141Z,17.90
2017-10-24T13:30:00.566Z,18.00
2017-10-24T13:32:32.331Z,18.01
2017-10-24T13:35:04.155Z,17.99
2017-10-24T13:37:35.474Z,18.00
2017-10-24T13:40:14.100Z,18.00
2017-10-24T13:42:45.397Z,17.91
2017-10-24T13:45:17.088Z,17.90
2017-10-24T13:47:48.787Z,17.95
2017-10-24T13:50:22.182Z,17.97
2017-10-24T13:52:54.244Z,17.94
2017-10-24T13:55:26.518Z,17.93
2017-10-24T13:57:57.827Z,17.91
2017-10-24T14:00:30.971Z,17.91
2017-10-24T14:03:02.917Z,17.96
2017-10-24T14:10:12.992Z,17.92
2017-10-24T14:12:44.613Z,17.82
2017-10-24T14:15:17.596Z,17.82
2017-10-24T14:17:50.761Z,17.79
2017-10-24T14:20:22.419Z,17.70
2017-10-24T14:22:53.749Z,17.64
2017-10-24T14:25:26.194Z,17.65
2017-10-24T14:27:58.143Z,17.64
2017-10-24T14:30:30.306Z,17.64
2017-10-24T14:33:02.180Z,17.61
2017-10-24T14:35:34.028Z,17.58
2017-10-24T14:38:07.357Z,17.58
2017-10-24T14:40:39.061Z,17.57
2017-10-24T14:43:10.707Z,17.54
2017-10-24T14:45:42.053Z,17.55
2017-10-24T14:48:13.652Z,17.54
2017-10-24T14:50:44.953Z,17.50
2017-10-24T14:53:16.430Z,17.48
2017-10-24T14:55:48.059Z,17.47
2017-10-24T14:58:20.267Z,17.47
2017-10-24T15:00:51.760Z,17.46
2017-10-24T15:03:24.286Z,17.42
2017-10-24T15:05:57.259Z,17.40
2017-10-24T15:08:30.674Z,17.39
2017-10-24T15:11:03.469Z,17.40
2017-10-24T15:13:34.902Z,17.37
2017-10-24T15:16:08.513Z,17.39
2017-10-24T15:18:39.823Z,17.36
2017-10-24T15:21:11.480Z,17.36
2017-10-24T15:23:43.229Z,17.33
2017-10-24T15:26:17.039Z,17.29
2017-10-24T15:28:48.692Z,17.25
2017-10-24T15:31:21.109Z,17.23
2017-10-24T15:33:52.404Z,17.21
2017-10-24T15:36:23.930Z,17.19
2017-10-24T15:38:55.290Z,17.20
2017-10-24T15:41:26.689Z,17.24
2017-10-24T15:43:58.308Z,17.24
2017-10-24T15:46:30.887Z,17.23
2017-10-24T15:49:02.962Z,17.21
2017-10-24T15:51:34.597Z,17.18
2017-10-24T15:56:43.533Z,17.11
2017-10-24T15:59:16.591Z,17.08
2017-10-24T16:01:48.607Z,17.02
2017-10-24T16:04:20.910Z,16.99
2017-10-24T16:06:52.267Z,16.96
2017-10-24T16:09:25.883Z,16.97
2017-10-24T16:11:57.210Z,16.91
2017-10-24T16:14:29.246Z,16.89
2017-10-24T16:17:00.631Z,16.87
2017-10-24T16:19:32.951Z,16.85
2017-10-24T16:22:08.208Z,16.82
2017-10-24T16:24:39.549Z,16.80
2017-10-24T16:27:10.957Z,16.80
2017-10-24T16:32:22.146Z,16.77
2017-10-24T16:34:53.456Z,16.79
2017-10-24T16:37:25.854Z,16.79
2017-10-24T16:39:58.132Z,16.78
2017-10-24T16:42:29.823Z,16.76
2017-10-24T16:45:01.898Z,16.77
2017-10-24T16:47:33.755Z,16.77
2017-10-24T16:50:06.145Z,16.78
2017-10-24T16:52:37.746Z,16.78
2017-10-24T16:55:09.309Z,16.78
2017-10-24T16:57:41.685Z,16.77
2017-10-24T17:00:13.390Z,16.79
2017-10-24T17:02:45.110Z,16.79
2017-10-24T17:05:18.004Z,16.77
2017-10-24T17:07:49.371Z,16.77
2017-10-24T17:10:22.511Z,16.77
2017-10-24T17:12:53.932Z,16.74
2017-10-24T17:15:25.301Z,16.75
2017-10-24T17:17:57.006Z,16.76
2017-10-24T17:20:28.871Z,16.76
2017-10-24T17:23:00.824Z,16.76
2017-10-24T17:25:32.605Z,16.74
2017-10-24T17:28:05.339Z,16.72
2017-10-24T17:30:37.131Z,16.72
2017-10-24T17:33:09.562Z,16.71
2017-10-24T17:35:41.731Z,16.72
2017-10-24T17:38:13.625Z,16.71
2017-10-24T17:40:45.191Z,16.71
2017-10-24T17:43:17.099Z,16.70
2017-10-24T17:45:48.661Z,16.70
2017-10-24T17:48:21.311Z,16.68
2017-10-24T17:50:53.076Z,16.67
2017-10-24T17:53:25.484Z,16.66
2017-10-24T17:55:56.929Z,16.64
2017-10-24T17:58:28.579Z,16.62
2017-10-24T18:01:00.871Z,16.62
2017-10-24T18:03:33.597Z,16.58
2017-10-24T18:06:13.049Z,16.57
2017-10-24T18:08:44.390Z,16.56
2017-10-24T18:14:30.932Z,16.49
2017-10-24T18:17:04.743Z,16.48
2017-10-24T18:19:37.400Z,16.47
2017-10-24T18:22:09.284Z,16.45
2017-10-24T18:24:41.199Z,16.41
2017-10-24T18:27:13.447Z,16.37
2017-10-24T18:29:44.892Z,16.37
2017-10-24T18:32:16.941Z,16.38
2017-10-24T18:34:49.282Z,16.37
2017-10-24T18:37:20.891Z,16.37
2017-10-24T18:39:52.329Z,16.35
2017-10-24T18:42:24.879Z,16.35
2017-10-24T18:44:57.008Z,16.32
2017-10-24T18:47:28.619Z,16.33
2017-10-24T18:50:01.196Z,16.35
2017-10-24T18:52:34.600Z,16.32
2017-10-24T18:55:06.119Z,16.30
2017-10-24T18:57:37.534Z,16.30
2017-10-24T19:02:39.574Z,16.29
2017-10-24T19:05:11.094Z,16.30
2017-10-24T19:07:43.188Z,16.28
2017-10-24T19:10:15.303Z,16.29
2017-10-24T19:12:47.190Z,16.30
2017-10-24T19:15:18.852Z,16.29
2017-10-24T19:17:50.757Z,16.28
2017-10-24T19:20:22.692Z,16.25
2017-10-24T19:22:56.795Z,16.26
2017-10-24T19:25:29.583Z,16.29
2017-10-24T19:28:02.437Z,16.27
2017-10-24T19:30:35.541Z,16.26
2017-10-24T19:33:13.137Z,16.27
2017-10-24T19:35:44.691Z,16.28
2017-10-24T19:38:16.539Z,16.25
2017-10-24T19:40:48.901Z,16.22
2017-10-24T19:43:25.643Z,16.22
2017-10-24T19:45:57.696Z,16.24
2017-10-24T19:48:29.349Z,16.26
2017-10-24T19:51:00.715Z,16.27
2017-10-24T19:53:40.364Z,16.29
2017-10-24T19:56:14.115Z,16.30
2017-10-24T20:02:07.183Z,16.29
2017-10-24T20:04:39.588Z,16.30
2017-10-24T20:07:13.941Z,16.30
2017-10-24T20:09:46.856Z,16.27
2017-10-24T20:12:23.257Z,16.27
2017-10-24T20:14:54.988Z,16.28
2017-10-24T20:17:28.356Z,16.29
2017-10-24T20:20:05.227Z,16.29
2017-10-24T20:22:38.128Z,16.29
2017-10-24T20:25:10.847Z,16.28
2017-10-24T20:27:43.130Z,16.27
2017-10-24T20:30:15.147Z,16.27
2017-10-24T20:32:46.552Z,16.27
2017-10-24T20:35:19.951Z,16.28
2017-10-24T20:37:52.352Z,16.27
2017-10-24T20:40:24.088Z,16.27
2017-10-24T20:42:55.555Z,16.27
2017-10-24T20:45:29.596Z,16.29
2017-10-24T20:48:03.430Z,16.28
2017-10-24T20:50:37.221Z,16.30
2017-10-24T20:53:08.665Z,16.30
2017-10-24T20:55:41.272Z,16.31
2017-10-24T20:58:17.183Z,16.31
2017-10-24T21:00:49.944Z,16.31
2017-10-24T21:03:24.819Z,16.33
2017-10-24T21:05:57.268Z,16.34
2017-10-24T21:08:28.962Z,16.37
2017-10-24T21:11:02.587Z,16.42
2017-10-24T21:13:34.507Z,16.42
2017-10-24T21:16:10.988Z,16.43
2017-10-24T21:18:42.729Z,16.44
2017-10-24T21:21:16.974Z,16.45
2017-10-24T21:23:49.957Z,16.46
2017-10-24T21:26:23.010Z,16.44
2017-10-24T21:28:56.332Z,16.46
2017-10-24T21:31:27.747Z,16.45
2017-10-24T21:37:05.068Z,16.42
2017-10-24T21:39:36.486Z,16.42
2017-10-24T21:42:07.824Z,16.42
2017-10-24T21:44:39.447Z,16.40
2017-10-24T21:47:10.990Z,16.38
2017-10-24T21:49:42.341Z,16.40
2017-10-24T21:52:13.826Z,16.42
2017-10-24T21:54:45.664Z,16.40
2017-10-24T21:57:17.415Z,16.39
2017-10-24T21:59:48.752Z,16.40
2017-10-24T22:02:20.836Z,16.40
2017-10-24T22:04:52.155Z,16.38
2017-10-24T22:07:25.094Z,16.37
2017-10-24T22:09:56.680Z,16.36
2017-10-24T22:12:28.017Z,16.34
2017-10-24T22:14:59.347Z,16.33
2017-10-24T22:17:32.252Z,16.32
2017-10-24T22:20:05.738Z,16.35
2017-10-24T22:22:37.369Z,16.36
2017-10-24T22:25:08.772Z,16.36
2017-10-24T22:27:40.186Z,16.38
2017-10-24T22:30:12.011Z,16.35
2017-10-24T22:32:43.336Z,16.35
2017-10-24T22:35:14.664Z,16.34
2017-10-24T22:37:46.414Z,16.35
2017-10-24T22:40:17.744Z,16.36
2017-10-24T22:42:49.361Z,16.36
2017-10-24T22:45:21.045Z,16.38
2017-10-24T22:47:52.536Z,16.38
2017-10-24T22:50:25.079Z,16.39
2017-10-24T22:52:56.565Z,16.37
2017-10-24T22:55:27.896Z,16.36
2017-10-24T22:57:59.568Z,16.35
2017-10-24T23:00:30.913Z,16.36
2017-10-24T23:03:02.661Z,16.36
2017-10-24T23:05:34.338Z,16.34
2017-10-24T23:08:06.329Z,16.34
2017-10-24T23:10:37.727Z,16.34
2017-10-24T23:13:09.485Z,16.36
2017-10-24T23:15:40.985Z,16.35
2017-10-24T23:18:12.611Z,16.34
2017-10-24T23:20:44.112Z,16.32
2017-10-24T23:23:15.648Z,16.32
2017-10-24T23:25:47.407Z,16.33
2017-10-24T23:28:18.728Z,16.31
2017-10-24T23:30:50.091Z,16.33
2017-10-24T23:33:21.881Z,16.31
2017-10-24T23:35:53.215Z,16.30
2017-10-24T23:38:25.400Z,16.30
2017-10-24T23:40:57.091Z,16.32
2017-10-24T23:43:28.557Z,16.29
2017-10-24T23:46:00.324Z,16.29
2017-10-24T23:48:31.870Z,16.30
2017-10-24T23:51:03.359Z,16.30
2017-10-24T23:53:35.022Z,16.28
2017-10-24T23:56:06.332Z,16.26
2017-10-24T23:58:37.669Z,16.23
